createdAt,value
2017-12-19T19:01:20.884Z,99.99
2017-12-19T19:02:29.712Z,99.99
2017-12-19T19:03:38.542Z,99.99
2017-12-19T19:04:47.648Z,99.99
2017-12-19T19:05:56.477Z,99.99
2017-12-19T19:07:05.307Z,99.99
2017-12-19T19:08:14.138Z,99.99
2017-12-19T19:09:23.223Z,99.99
2017-12-19T19:10:32.255Z,99.99
2017-12-19T19:11:41.230Z,99.99
2017-12-19T19:12:50.061Z,99.99
2017-12-19T19:13:59.169Z,99.99
2017-12-19T19:15:08.005Z,99.99
2017-12-19T19:16:17.108Z,99.99
2017-12-19T19:17:26.091Z,99.99
2017-12-19T19:18:34.919Z,99.99
2017-12-19T19:19:43.748Z,99.99
2017-12-19T19:20:52.580Z,99.99
2017-12-19T19:22:01.411Z,99.99
2017-12-19T19:23:10.240Z,99.99
2017-12-19T19:24:19.070Z,99.99
2017-12-19T19:25:27.900Z,99.99
2017-12-19T19:26:36.730Z,99.99
2017-12-19T19:27:45.562Z,99.99
2017-12-19T19:28:54.388Z,99.99
2017-12-19T19:30:03.216Z,99.99
2017-12-19T19:31:12.051Z,99.99
2017-12-19T19:32:20.931Z,99.99
2017-12-19T19:33:30.920Z,99.99
2017-12-19T19:34:40.266Z,99.99
2017-12-19T19:35:50.125Z,99.99
2017-12-19T19:36:59.662Z,99.99
2017-12-19T19:38:08.492Z,99.99
2017-12-19T19:39:17.715Z,99.99
2017-12-19T19:40:27.351Z,99.77
2017-12-19T19:41:36.949Z,99.58
2017-12-19T19:42:46.196Z,99.58
2017-12-19T19:43:55.025Z,99.58
2017-12-19T19:45:03.938Z,99.49
2017-12-19T19:46:14.177Z,99.49
2017-12-19T19:47:23.007Z,99.58
2017-12-19T19:48:32.113Z,99.4
2017-12-19T19:49:40.944Z,99.77
2017-12-19T19:50:49.879Z,99.58
2017-12-19T19:51:59.035Z,99.68
2017-12-19T19:53:08.107Z,99.77
2017-12-19T19:54:17.415Z,99.68
2017-12-19T19:55:26.537Z,99.68
2017-12-19T19:56:35.860Z,99.58
2017-12-19T19:59:53.843Z,99.11
2017-12-19T20:01:02.788Z,99.11
2017-12-19T20:02:11.812Z,99.3
2017-12-19T20:03:20.793Z,99.3
2017-12-19T20:04:30.044Z,99.3
2017-12-19T20:05:38.872Z,99.02
2017-12-19T20:06:47.993Z,99.02
2017-12-19T20:07:56.824Z,99.02
2017-12-19T20:09:05.710Z,99.02
2017-12-19T20:10:14.621Z,99.02
2017-12-19T20:11:23.567Z,99.11
2017-12-19T20:12:32.691Z,99.3
2017-12-19T20:13:41.567Z,99.11
2017-12-19T20:14:50.549Z,99.3
2017-12-19T20:15:59.374Z,99.21
2017-12-19T20:17:08.204Z,99.11
2017-12-19T20:18:17.310Z,99.21
2017-12-19T20:19:26.141Z,99.4
2017-12-19T20:20:35.117Z,99.4
2017-12-19T20:21:43.948Z,99.49
2017-12-19T20:22:52.779Z,99.4
2017-12-19T20:24:01.608Z,99.02
2017-12-19T20:25:10.436Z,99.3
2017-12-19T20:26:19.549Z,99.02
2017-12-19T20:27:28.654Z,99.3
2017-12-19T20:28:37.483Z,99.4
2017-12-19T20:29:46.582Z,99.4
2017-12-19T20:30:55.414Z,99.4
2017-12-19T20:32:04.242Z,99.4
2017-12-19T20:33:13.352Z,98.73
2017-12-19T20:34:22.181Z,99.58
2017-12-19T20:35:31.014Z,99.3
2017-12-19T20:36:39.845Z,99.4
2017-12-19T20:37:48.677Z,99.58
2017-12-19T20:38:57.503Z,99.49
2017-12-19T20:40:06.335Z,98.73
2017-12-19T20:41:15.163Z,98.73
2017-12-19T20:42:24.217Z,98.83
2017-12-19T20:43:33.382Z,99.58
2017-12-19T20:44:42.252Z,99.49
2017-12-19T20:45:51.112Z,98.83
2017-12-19T20:47:00.271Z,98.73
2017-12-19T20:48:09.467Z,98.64
2017-12-19T20:49:18.331Z,99.4
2017-12-19T20:50:27.176Z,98.73
2017-12-19T20:51:36.035Z,98.92
2017-12-19T20:52:44.953Z,99.49
2017-12-19T20:53:54.008Z,98.79
2017-12-19T20:55:03.057Z,98.73
2017-12-19T20:56:11.923Z,98.83
2017-12-19T20:57:21.094Z,98.79
2017-12-19T20:58:30.431Z,99.64
2017-12-19T20:59:39.587Z,98.97
2017-12-19T21:00:48.695Z,98.88
2017-12-19T21:01:57.554Z,98.92
2017-12-19T21:03:06.384Z,99.64
2017-12-19T21:04:15.216Z,98.97
2017-12-19T21:05:24.066Z,99.83
2017-12-19T21:06:33.349Z,99.4
2017-12-19T21:07:42.177Z,99.4
2017-12-19T21:08:51.011Z,99.49
2017-12-19T21:09:59.840Z,99.77
2017-12-19T21:11:08.669Z,98.73
2017-12-19T21:12:17.649Z,98.64
2017-12-19T21:13:26.682Z,98.92
2017-12-19T21:14:35.764Z,98.92
2017-12-19T21:15:44.805Z,98.45
2017-12-19T21:16:53.888Z,98.92
2017-12-19T21:18:02.873Z,98.73
2017-12-19T21:19:12.172Z,98.73
2017-12-19T21:20:20.999Z,98.64
2017-12-19T21:21:29.829Z,98.64
2017-12-19T21:22:38.660Z,98.64
2017-12-19T21:23:47.617Z,98.73
2017-12-19T21:24:56.422Z,98.92
2017-12-19T21:26:05.250Z,98.64
2017-12-19T21:27:14.080Z,98.73
2017-12-19T21:28:22.910Z,98.45
2017-12-19T21:29:31.791Z,98.64
2017-12-19T21:30:40.617Z,98.73
2017-12-19T21:31:49.447Z,98.54
2017-12-19T21:32:58.278Z,98.73
2017-12-19T21:34:07.111Z,98.73
2017-12-19T21:35:16.239Z,98.73
2017-12-19T21:36:25.068Z,98.45
2017-12-19T21:37:33.901Z,98.54
2017-12-19T21:38:43.004Z,98.54
2017-12-19T21:39:51.831Z,98.54
2017-12-19T21:41:00.659Z,98.92
2017-12-19T21:42:09.489Z,98.54
2017-12-19T21:43:19.141Z,98.54
2017-12-19T21:44:27.968Z,98.35
2017-12-19T21:45:36.797Z,98.54
2017-12-19T21:46:45.625Z,98.54
2017-12-19T21:47:54.454Z,98.54
2017-12-19T21:49:03.281Z,98.54
2017-12-19T21:50:12.109Z,98.54
2017-12-19T21:51:20.937Z,98.35
2017-12-19T21:52:29.815Z,98.83
2017-12-19T21:53:38.644Z,98.4
2017-12-19T21:54:47.474Z,98.83
2017-12-19T21:55:56.302Z,99.02
2017-12-19T21:57:05.407Z,98.64
2017-12-19T21:58:14.536Z,98.45
2017-12-19T21:59:23.365Z,98.73
2017-12-19T22:00:32.466Z,98.64
2017-12-19T22:01:41.294Z,98.45
2017-12-19T22:02:50.176Z,98.26
2017-12-19T22:03:59.429Z,98.45
2017-12-19T22:05:08.254Z,98.16
2017-12-19T22:06:17.082Z,98.45
2017-12-19T22:07:25.911Z,98.45
2017-12-19T22:08:34.738Z,99.02
2017-12-19T22:09:43.819Z,98.45
2017-12-19T22:10:52.919Z,98.83
2017-12-19T22:12:01.749Z,98.54
2017-12-19T22:13:10.580Z,98.64
2017-12-19T22:14:19.411Z,98.83
2017-12-19T22:15:28.230Z,98.64
2017-12-19T22:16:37.058Z,98.92
2017-12-19T22:17:45.887Z,98.31
2017-12-19T22:18:54.715Z,97.78
2017-12-19T22:20:03.545Z,98.07
2017-12-19T22:21:12.648Z,97.88
2017-12-19T22:22:21.477Z,97.97
2017-12-19T22:23:30.306Z,98.16
2017-12-19T22:24:39.135Z,97.88
2017-12-19T22:25:47.964Z,98.07
2017-12-19T22:26:56.793Z,97.41
2017-12-19T22:28:05.622Z,97.78
2017-12-19T22:29:14.448Z,97.97
2017-12-19T22:30:23.277Z,97.22
2017-12-19T22:31:32.386Z,97.78
2017-12-19T22:32:41.309Z,97.5
2017-12-19T22:33:50.135Z,97.41
2017-12-19T22:34:58.964Z,97.55
2017-12-19T22:36:07.793Z,97.55
2017-12-19T22:37:16.903Z,97.92
2017-12-19T22:38:25.782Z,97.83
2017-12-19T22:39:34.888Z,97.74
2017-12-19T22:40:43.717Z,98.02
2017-12-19T22:41:52.545Z,97.45
2017-12-19T22:43:01.373Z,97.83
2017-12-19T22:44:10.251Z,97.88
2017-12-19T22:45:19.080Z,97.78
2017-12-19T22:46:27.909Z,97.83
2017-12-19T22:47:36.738Z,97.78
2017-12-19T22:48:45.567Z,97.78
2017-12-19T22:49:54.393Z,97.69
2017-12-19T22:51:03.220Z,97.78
2017-12-19T22:52:12.051Z,97.5
2017-12-19T22:53:20.881Z,97.5
2017-12-19T22:54:29.709Z,97.17
2017-12-19T22:55:38.836Z,96.88
2017-12-19T22:56:47.667Z,97.83
2017-12-19T22:57:56.494Z,97.27
2017-12-19T22:59:05.601Z,97.64
2017-12-19T23:00:14.431Z,96.79
2017-12-19T23:01:23.567Z,96.93
2017-12-19T23:02:32.386Z,96.6
2017-12-19T23:03:41.215Z,96.69
2017-12-19T23:04:50.045Z,97.45
2017-12-19T23:05:58.872Z,97.41
2017-12-19T23:07:07.850Z,97.36
2017-12-19T23:08:16.677Z,97.41
2017-12-19T23:09:25.506Z,97.5
2017-12-19T23:10:34.335Z,97.22
2017-12-19T23:11:43.163Z,97.5
2017-12-19T23:12:52.090Z,96.64
2017-12-19T23:14:00.918Z,96.83
2017-12-19T23:15:09.745Z,96.93
2017-12-19T23:16:18.575Z,96.93
2017-12-19T23:17:27.407Z,97.02
2017-12-19T23:18:36.608Z,97.02
2017-12-19T23:19:45.434Z,96.26
2017-12-19T23:20:54.264Z,96.45
2017-12-19T23:22:03.094Z,96.36
2017-12-19T23:23:11.924Z,96.45
2017-12-19T23:24:21.074Z,96.45
2017-12-19T23:25:29.904Z,96.31
2017-12-19T23:26:38.728Z,96.31
2017-12-19T23:27:47.555Z,96.6
2017-12-19T23:28:56.385Z,96.31
2017-12-19T23:30:05.514Z,96.26
2017-12-19T23:31:14.292Z,96.31
2017-12-19T23:32:23.119Z,96.31
2017-12-19T23:33:31.947Z,95.98
2017-12-19T23:34:40.774Z,96.41
2017-12-19T23:35:49.852Z,96.41
2017-12-19T23:36:58.682Z,96.22
2017-12-19T23:38:07.782Z,96.6
2017-12-19T23:39:16.608Z,96.22
2017-12-19T23:40:25.436Z,96.6
2017-12-19T23:41:34.564Z,96.03
2017-12-19T23:42:43.394Z,95.6
2017-12-19T23:43:52.223Z,95.94
2017-12-19T23:45:01.328Z,96.08
2017-12-19T23:46:10.158Z,96.26
2017-12-19T23:47:19.137Z,96.08
2017-12-19T23:48:27.966Z,95.22
2017-12-19T23:49:36.794Z,95.22
2017-12-19T23:50:45.620Z,95.22
2017-12-19T23:51:54.448Z,95.12
2017-12-19T23:53:03.277Z,95.22
2017-12-19T23:54:12.379Z,95.41
2017-12-19T23:55:21.207Z,95.12
2017-12-19T23:56:30.033Z,95.12
2017-12-19T23:57:39.140Z,94.74
2017-12-19T23:58:48.015Z,94.46
2017-12-19T23:59:56.843Z,94.56
